• Join FlightAware (Why Join?)
  • Login
  • US Flag 
04:51PM EDT


 

Airport Tracker/Info


-or-


 

Live Flight TrackerFlight Track Log ✈ N745CC ✈ 25-Apr-2013 ✈ KBED - KTTN

Flight Track Log - Related Links

Times and Time Zones

All times are in EDT time to prevent confusion due to time zone crossing. See the N745CC flight status page for this flight to view local times or setup timezone preferences in your user account.

Time Position Orientation Groundspeed Altitude Reporting Facility
EDT Latitude Longitude Course Direction KTS MPH feet Rate Location/Type
03:16PM 42.4667 -71.3333 216° Southwest 185 213 1,900  Level KA90
03:17PM 42.4167 -71.3833 216° Southwest 197 227 3,000 540 Climbing KA90
03:18PM 42.3833 -71.4167 216° Southwest 189 217 3,100 960 Climbing KA90
03:19PM 42.3253 -71.4714 215° Southwest 229 264 5,100 2,400 Climbing Boston Center
03:20PM 42.2653 -71.5200 211° Southwest 237 273 8,100 2,880 Climbing Boston Center
03:21PM 42.2094 -71.5683 213° Southwest 248 285 10,900 2,880 Climbing Boston Center
03:22PM 42.1514 -71.6167 212° Southwest 253 291 13,900 3,060 Climbing Boston Center
03:23PM 42.0978 -71.6650 214° Southwest 242 278 17,100 2,700 Climbing Boston Center
03:24PM 42.0519 -71.7047 213° Southwest 227 261 19,400 2,280 Climbing Boston Center
03:25PM 42.0086 -71.7444 214° Southwest 221 254 21,700 2,100 Climbing Boston Center
03:26PM 41.9631 -71.7839 213° Southwest 208 239 23,700 1,140 Climbing Boston Center
03:27PM 41.9111 -71.8264 211° Southwest 208 239 24,000 120 Climbing Boston Center
03:28PM 41.8467 -71.8772 210° Southwest 244 281 24,000  Level Boston Center
03:29PM 41.7803 -71.9333 212° Southwest 272 313 24,000  Level Boston Center
03:30PM 41.7117 -71.9897 212° Southwest 286 329 24,000  Level Boston Center
03:31PM 41.6494 -72.0567 219° Southwest 291 335 24,000  Level Boston Center
03:32PM 41.5892 -72.1236 220° Southwest 291 335 24,000  Level Boston Center
03:33PM 41.5289 -72.1906 220° Southwest 291 335 24,000  Level Boston Center
03:34PM 41.4667 -72.2544 218° Southwest 286 329 24,000  Level Boston Center
03:35PM 41.3958 -72.3239 216° Southwest 286 329 24,000  Level Boston Center
03:36PM 41.3314 -72.3819 214° Southwest 291 335 24,000  Level Boston Center
03:37PM 41.2500 -72.3656 171° South 283 326 24,000  Level Boston Center
03:38PM 41.1603 -72.3519 173° South 304 350 24,000  Level Boston Center
03:39PM 41.0769 -72.3658 187° South 310 357 24,000 -120 Level Boston Center
03:40PM 40.9978 -72.3989 197° South 310 357 23,800 -600 Descending Boston Center
03:41PM 40.9228 -72.4372 201° Southwest 299 344 22,800 -1,080 Descending Boston Center
03:42PM 40.8478 -72.4731 200° South 292 336 21,700 -1,080 Descending Boston Center
03:43PM 40.7769 -72.5031 198° South 286 329 20,700 -1,440 Descending Boston Center
03:44PM 40.6936 -72.5386 198° South 286 329 18,900 -1,500 Descending Boston Center
03:46PM 40.6707 -72.6712 224° Southwest  Level Estimated
03:46PM 40.5800 -72.6731 224° Southwest 274 315 16,000  Level New York Center
03:47PM 40.5289 -72.7397 225° Southwest 264 304 14,400 -1,020 Descending New York Center
03:48PM 40.4756 -72.8119 226° Southwest 257 296 14,000 -240 Descending New York Center
03:49PM 40.4242 -72.8758 223° Southwest 264 304 14,000  Level New York Center
03:50PM 40.3708 -72.9450 225° Southwest 264 304 14,000  Level New York Center
03:51PM 40.3175 -73.0142 225° Southwest 264 304 14,000 -60 Level New York Center
03:52PM 40.2706 -73.0750 225° Southwest 264 304 13,900 -600 Descending New York Center
03:53PM 40.2169 -73.1439 224° Southwest 264 304 12,900 -960 Descending New York Center
03:54PM 40.1678 -73.2075 225° Southwest 258 297 12,000 -480 Descending New York Center
03:55PM 40.1164 -73.2708 223° Southwest 258 297 12,000  Level New York Center
03:56PM 40.0692 -73.3314 224° Southwest 258 297 12,000  Level New York Center
03:57PM 40.0136 -73.4025 224° Southwest 258 297 12,000 -60 Level New York Center
03:58PM 39.9700 -73.4794 234° Southwest 258 297 11,900 -480 Descending New York Center
03:59PM 39.9742 -73.5772 273° West 243 280 11,100 -1,620 Descending New York Center
04:00PM 39.9864 -73.6725 280° West 254 292 8,700 -2,400 Descending New York Center
04:01PM 39.9922 -73.7647 275° West 260 299 6,400 -1,800 Descending New York Center
04:02PM 40.0108 -73.8497 286° West 254 292 5,100 -1,200 Descending New York Center
04:03PM 40.0297 -73.9317 287° West 242 278 4,100 -600 Descending New York Center
04:04PM 40.0483 -74.0111 287° West 249 287 4,000 -60 Descending New York Center
04:05PM 40.0689 -74.0964 288° West 249 287 4,000  Level New York Center
04:06PM 40.0911 -74.1894 287° West 249 287 4,000  Level New York Center
04:07PM 40.1114 -74.2803 286° West 249 287 4,000  Level New York Center
04:08PM 40.1300 -74.3572 288° West 249 287 4,000 -60 Level New York Center
04:09PM 40.1481 -74.4450 285° West 249 287 3,900  Descending New York Center
04:10PM 40.1683 -74.5303 287° West 249 287 4,000  Climbing New York Center
04:11PM 40.1867 -74.6100 287° West 249 287 4,000  Level New York Center
04:12PM 40.2011 -74.6761 286° West 226 260 4,000 -360 Level New York Center
04:13PM 40.2183 -74.7233 296° West 181 208 3,300 -1,140 Descending New York Center
04:14PM 40.2436 -74.7764 302° West 155 178 1,800 300 Descending New York Center
04:15PM 40.2769 -74.7728 North 117 135 4,000 -660 Climbing New York Center
04:16PM 40.2931 -74.7956 313° West 85 98 500 -1,800 Descending New York Center
04:17PM 40.3047 -74.8153 308° West 79 91 400 1,740 Descending New York Center
04:18PM 40.3186 -74.8353 312° West 79 91 4,000 3,720 Climbing New York Center